RYR89XA EIDW-GCTS
Flight info
| Callsign | RYR89XA |
|---|---|
| Flight time | 4h 11m |
| Altitude | 35000 |
| Route | BEPAN4E BEPAN DCT BANBA DCT PAVLO/N0447F360 DCT AMPOP/N0443F350 DCT TURDO DCT SOSOV/N0444F370 DCT DEMOS DCT ORSOS DCT BEXAL UN866 KONBA |
| Aircraft | B738/M-SDE3FGILRWY/SB1 |
Departure
| Time | 2026-04-30 09:58 |
|---|---|
| Airport | Dublin Airport (EIDW) |
Arrival
| Time | 2026-04-30 14:09 |
|---|---|
| Airport | Tenerife Sur Airport (GCTS) |
| Time | Latitude | Longitude | Altitude | Speed | Heading |
|---|---|---|---|---|---|
| 2026-04-30 09:26 | 53.43108 | -6.24960 | 210 ft | 0 kts | 185° |
| 2026-04-30 09:48 | 53.43116 | -6.24959 | 216 ft | 4 kts | 186° |
| 2026-04-30 09:48 | 53.43143 | -6.24952 | 210 ft | 4 kts | 192° |
| 2026-04-30 09:49 | 53.43169 | -6.24941 | 210 ft | 4 kts | 199° |
| 2026-04-30 09:49 | 53.43193 | -6.24923 | 216 ft | 4 kts | 215° |
| 2026-04-30 09:49 | 53.43209 | -6.24893 | 216 ft | 4 kts | 261° |
| 2026-04-30 09:49 | 53.43210 | -6.24882 | 215 ft | 0 kts | 275° |
| 2026-04-30 09:52 | 53.43210 | -6.24888 | 216 ft | 3 kts | 275° |
| 2026-04-30 09:52 | 53.43215 | -6.24971 | 212 ft | 12 kts | 276° |
| 2026-04-30 09:52 | 53.43226 | -6.25157 | 210 ft | 19 kts | 273° |
| 2026-04-30 09:52 | 53.43212 | -6.25379 | 218 ft | 19 kts | 247° |
| 2026-04-30 09:53 | 53.43112 | -6.25474 | 212 ft | 19 kts | 159° |
| 2026-04-30 09:53 | 53.42994 | -6.25389 | 216 ft | 18 kts | 156° |
| 2026-04-30 09:53 | 53.42880 | -6.25305 | 215 ft | 18 kts | 156° |
| 2026-04-30 09:53 | 53.42769 | -6.25300 | 214 ft | 17 kts | 221° |
| 2026-04-30 09:54 | 53.42687 | -6.25439 | 213 ft | 17 kts | 225° |
| 2026-04-30 09:54 | 53.42589 | -6.25604 | 210 ft | 22 kts | 226° |
| 2026-04-30 09:54 | 53.42471 | -6.25807 | 213 ft | 26 kts | 225° |
| 2026-04-30 09:54 | 53.42334 | -6.26040 | 210 ft | 29 kts | 226° |
| 2026-04-30 09:55 | 53.42269 | -6.26337 | 210 ft | 28 kts | 276° |
| 2026-04-30 09:55 | 53.42286 | -6.26648 | 210 ft | 26 kts | 275° |
| 2026-04-30 09:55 | 53.42303 | -6.26939 | 210 ft | 24 kts | 276° |
| 2026-04-30 09:55 | 53.42317 | -6.27211 | 210 ft | 23 kts | 275° |
| 2026-04-30 09:56 | 53.42331 | -6.27473 | 210 ft | 23 kts | 276° |
| 2026-04-30 09:56 | 53.42350 | -6.27750 | 218 ft | 25 kts | 276° |
| 2026-04-30 09:56 | 53.42361 | -6.28053 | 210 ft | 26 kts | 275° |
| 2026-04-30 09:56 | 53.42362 | -6.28282 | 219 ft | 18 kts | 239° |
| 2026-04-30 09:57 | 53.42253 | -6.28249 | 214 ft | 21 kts | 127° |
| 2026-04-30 09:57 | 53.42172 | -6.27798 | 213 ft | 74 kts | 95° |
| 2026-04-30 09:57 | 53.42109 | -6.26563 | 210 ft | 135 kts | 95° |
| 2026-04-30 09:57 | 53.42017 | -6.24801 | 614 ft | 155 kts | 96° |
| 2026-04-30 09:58 | 53.41920 | -6.23058 | 1511 ft | 149 kts | 97° |
| 2026-04-30 09:58 | 53.41814 | -6.21196 | 1989 ft | 177 kts | 98° |
| 2026-04-30 09:58 | 53.41693 | -6.19007 | 2298 ft | 196 kts | 99° |
| 2026-04-30 09:58 | 53.41566 | -6.16687 | 2847 ft | 205 kts | 101° |
| 2026-04-30 09:59 | 53.41294 | -6.11792 | 4370 ft | 214 kts | 101° |
| 2026-04-30 09:59 | 53.41009 | -6.06760 | 5915 ft | 220 kts | 100° |
| 2026-04-30 10:00 | 53.39891 | -6.01946 | 6816 ft | 244 kts | 141° |
| 2026-04-30 10:00 | 53.38362 | -6.00739 | 7455 ft | 253 kts | 167° |
| 2026-04-30 10:01 | 53.34795 | -6.00885 | 8847 ft | 259 kts | 181° |
| 2026-04-30 10:01 | 53.33009 | -6.01157 | 9173 ft | 260 kts | 180° |
| 2026-04-30 10:01 | 53.31183 | -6.01406 | 9176 ft | 266 kts | 180° |
| 2026-04-30 10:02 | 53.27525 | -6.02203 | 9235 ft | 268 kts | 191° |
| 2026-04-30 10:02 | 53.25733 | -6.03148 | 9820 ft | 272 kts | 193° |
| 2026-04-30 10:02 | 53.23933 | -6.04123 | 10574 ft | 275 kts | 192° |
| 2026-04-30 10:02 | 53.22668 | -6.04786 | 10728 ft | 290 kts | 192° |
| 2026-04-30 10:03 | 53.20664 | -6.05814 | 10910 ft | 313 kts | 192° |
| 2026-04-30 10:03 | 53.18503 | -6.06720 | 11181 ft | 326 kts | 184° |
| 2026-04-30 10:03 | 53.16232 | -6.07123 | 11804 ft | 329 kts | 180° |
| 2026-04-30 10:03 | 53.13944 | -6.07432 | 12572 ft | 331 kts | 180° |
| 2026-04-30 10:04 | 53.11678 | -6.07773 | 13322 ft | 334 kts | 183° |
| 2026-04-30 10:04 | 53.09390 | -6.08723 | 14006 ft | 344 kts | 194° |
| 2026-04-30 10:04 | 53.07127 | -6.10117 | 14657 ft | 348 kts | 195° |
| 2026-04-30 10:04 | 53.04856 | -6.11541 | 15305 ft | 350 kts | 195° |
| 2026-04-30 10:05 | 53.02563 | -6.12952 | 15939 ft | 353 kts | 194° |
| 2026-04-30 10:05 | 53.00244 | -6.14346 | 16561 ft | 356 kts | 194° |
| 2026-04-30 10:05 | 52.97897 | -6.15737 | 17186 ft | 359 kts | 194° |
| 2026-04-30 10:05 | 52.95531 | -6.17128 | 17819 ft | 361 kts | 193° |
| 2026-04-30 10:06 | 52.93100 | -6.18111 | 18444 ft | 359 kts | 184° |
| 2026-04-30 10:06 | 52.90617 | -6.18639 | 18950 ft | 361 kts | 182° |
| 2026-04-30 10:06 | 52.88105 | -6.19104 | 19142 ft | 363 kts | 182° |
| 2026-04-30 10:06 | 52.85599 | -6.19570 | 19156 ft | 363 kts | 182° |
| 2026-04-30 10:07 | 52.83078 | -6.20056 | 19160 ft | 365 kts | 182° |
| 2026-04-30 10:07 | 52.80554 | -6.20563 | 19155 ft | 366 kts | 182° |
| 2026-04-30 10:07 | 52.78028 | -6.21083 | 19149 ft | 366 kts | 182° |
| 2026-04-30 10:07 | 52.75503 | -6.21611 | 19164 ft | 366 kts | 182° |
| 2026-04-30 10:08 | 52.72975 | -6.22142 | 19156 ft | 366 kts | 182° |
| 2026-04-30 10:08 | 52.70447 | -6.22675 | 19161 ft | 366 kts | 182° |
| 2026-04-30 10:08 | 52.67924 | -6.23206 | 19160 ft | 366 kts | 182° |
| 2026-04-30 10:08 | 52.65428 | -6.23732 | 19157 ft | 366 kts | 182° |
| 2026-04-30 10:09 | 52.62867 | -6.24270 | 19160 ft | 367 kts | 182° |
| 2026-04-30 10:09 | 52.60366 | -6.24795 | 19152 ft | 367 kts | 182° |
| 2026-04-30 10:09 | 52.57830 | -6.25326 | 19149 ft | 367 kts | 182° |
| 2026-04-30 10:09 | 52.55299 | -6.25856 | 19149 ft | 367 kts | 182° |
| 2026-04-30 10:10 | 52.52762 | -6.26375 | 19150 ft | 367 kts | 181° |
| 2026-04-30 10:10 | 52.50200 | -6.26549 | 19317 ft | 370 kts | 175° |
| 2026-04-30 10:10 | 52.47622 | -6.26438 | 19874 ft | 370 kts | 174° |
| 2026-04-30 10:10 | 52.45052 | -6.26254 | 20459 ft | 371 kts | 173° |
| 2026-04-30 10:11 | 52.42468 | -6.26066 | 20960 ft | 374 kts | 173° |
| 2026-04-30 10:11 | 52.39851 | -6.25894 | 21392 ft | 378 kts | 174° |
| 2026-04-30 10:11 | 52.37209 | -6.25743 | 21854 ft | 381 kts | 174° |
| 2026-04-30 10:11 | 52.34549 | -6.25608 | 22344 ft | 384 kts | 174° |
| 2026-04-30 10:12 | 52.31870 | -6.25483 | 22820 ft | 386 kts | 174° |
| 2026-04-30 10:12 | 52.29174 | -6.25362 | 23252 ft | 390 kts | 174° |
| 2026-04-30 10:12 | 52.26450 | -6.25243 | 23698 ft | 393 kts | 174° |
| 2026-04-30 10:12 | 52.23707 | -6.25124 | 24079 ft | 395 kts | 174° |
| 2026-04-30 10:13 | 52.20956 | -6.25006 | 24466 ft | 397 kts | 174° |
| 2026-04-30 10:13 | 52.18184 | -6.24886 | 24822 ft | 400 kts | 174° |
| 2026-04-30 10:13 | 52.15399 | -6.24765 | 25177 ft | 402 kts | 174° |
| 2026-04-30 10:13 | 52.12594 | -6.24644 | 25541 ft | 404 kts | 174° |
| 2026-04-30 10:14 | 52.09778 | -6.24523 | 25901 ft | 406 kts | 174° |
| 2026-04-30 10:14 | 52.06937 | -6.24400 | 26233 ft | 409 kts | 174° |
| 2026-04-30 10:14 | 52.01223 | -6.24154 | 26922 ft | 413 kts | 174° |
| 2026-04-30 10:15 | 51.98349 | -6.24030 | 27257 ft | 415 kts | 174° |
| 2026-04-30 10:15 | 51.95462 | -6.23843 | 27557 ft | 415 kts | 171° |
| 2026-04-30 10:15 | 51.92621 | -6.23106 | 27857 ft | 414 kts | 164° |
| 2026-04-30 10:15 | 51.89806 | -6.22115 | 28189 ft | 415 kts | 164° |
| 2026-04-30 10:16 | 51.87012 | -6.21120 | 28496 ft | 417 kts | 163° |
| 2026-04-30 10:16 | 51.84166 | -6.20113 | 28781 ft | 419 kts | 163° |
| 2026-04-30 10:16 | 51.81315 | -6.19114 | 29064 ft | 421 kts | 164° |
| 2026-04-30 10:17 | 51.75564 | -6.17129 | 29728 ft | 422 kts | 163° |
| 2026-04-30 10:17 | 51.69850 | -6.15181 | 30555 ft | 418 kts | 163° |
| 2026-04-30 10:17 | 51.67008 | -6.14214 | 30873 ft | 417 kts | 163° |
| 2026-04-30 10:18 | 51.64166 | -6.13248 | 31170 ft | 417 kts | 163° |
| 2026-04-30 10:18 | 51.61329 | -6.12285 | 31479 ft | 417 kts | 163° |
| 2026-04-30 10:18 | 51.58500 | -6.11325 | 31821 ft | 415 kts | 164° |
| 2026-04-30 10:19 | 51.52852 | -6.09413 | 32434 ft | 414 kts | 164° |
| 2026-04-30 10:19 | 51.50038 | -6.08462 | 32722 ft | 413 kts | 164° |
| 2026-04-30 10:19 | 51.47224 | -6.07512 | 33009 ft | 413 kts | 164° |
| 2026-04-30 10:19 | 51.44417 | -6.06565 | 33331 ft | 411 kts | 164° |
| 2026-04-30 10:20 | 51.41617 | -6.05623 | 33640 ft | 410 kts | 164° |
| 2026-04-30 10:20 | 51.36020 | -6.03741 | 34130 ft | 411 kts | 165° |
| 2026-04-30 10:20 | 51.33227 | -6.02804 | 34366 ft | 410 kts | 165° |
| 2026-04-30 10:21 | 51.30432 | -6.01868 | 34538 ft | 411 kts | 165° |
| 2026-04-30 10:21 | 51.27630 | -6.00930 | 34689 ft | 412 kts | 165° |
| 2026-04-30 10:21 | 51.24818 | -5.99990 | 34881 ft | 412 kts | 165° |
| 2026-04-30 10:21 | 51.22010 | -5.99053 | 35104 ft | 412 kts | 165° |
| 2026-04-30 10:22 | 51.19204 | -5.98117 | 35289 ft | 413 kts | 165° |
| 2026-04-30 10:22 | 51.16389 | -5.97180 | 35445 ft | 414 kts | 165° |
| 2026-04-30 10:22 | 51.13572 | -5.96243 | 35620 ft | 414 kts | 165° |
| 2026-04-30 10:22 | 51.10788 | -5.95318 | 35814 ft | 414 kts | 166° |
| 2026-04-30 10:23 | 51.07966 | -5.94382 | 35987 ft | 414 kts | 166° |
| 2026-04-30 10:23 | 51.05137 | -5.93445 | 36119 ft | 416 kts | 166° |
| 2026-04-30 10:23 | 51.02309 | -5.92508 | 36297 ft | 415 kts | 166° |
| 2026-04-30 10:23 | 50.99479 | -5.91573 | 36473 ft | 415 kts | 166° |
| 2026-04-30 10:24 | 50.96644 | -5.90637 | 36614 ft | 416 kts | 166° |
| 2026-04-30 10:24 | 50.93771 | -5.89972 | 36721 ft | 420 kts | 174° |
| 2026-04-30 10:24 | 50.90845 | -5.89969 | 36873 ft | 423 kts | 183° |
| 2026-04-30 10:24 | 50.87920 | -5.90498 | 37032 ft | 423 kts | 184° |
| 2026-04-30 10:25 | 50.82049 | -5.91663 | 37062 ft | 427 kts | 184° |
| 2026-04-30 10:25 | 50.76158 | -5.92812 | 37061 ft | 425 kts | 184° |
| 2026-04-30 10:26 | 50.70285 | -5.93919 | 37061 ft | 424 kts | 184° |
| 2026-04-30 10:26 | 50.64431 | -5.95004 | 37055 ft | 423 kts | 184° |
| 2026-04-30 10:27 | 50.58583 | -5.96081 | 37059 ft | 423 kts | 184° |
| 2026-04-30 10:27 | 50.52742 | -5.97154 | 37061 ft | 422 kts | 184° |
| 2026-04-30 10:28 | 50.46906 | -5.98224 | 37052 ft | 423 kts | 184° |
| 2026-04-30 10:28 | 50.41062 | -5.99294 | 37053 ft | 423 kts | 184° |
| 2026-04-30 10:29 | 50.35214 | -6.00361 | 37049 ft | 423 kts | 184° |
| 2026-04-30 10:29 | 50.29357 | -6.01428 | 37043 ft | 424 kts | 184° |
| 2026-04-30 10:30 | 50.23521 | -6.02488 | 37037 ft | 425 kts | 184° |
| 2026-04-30 10:30 | 50.17596 | -6.03562 | 37035 ft | 426 kts | 184° |
| 2026-04-30 10:31 | 50.11742 | -6.04620 | 37033 ft | 427 kts | 184° |
| 2026-04-30 10:31 | 50.05833 | -6.05686 | 37033 ft | 428 kts | 184° |
| 2026-04-30 10:32 | 49.99909 | -6.06752 | 37029 ft | 429 kts | 184° |
| 2026-04-30 10:32 | 49.93978 | -6.07816 | 37029 ft | 429 kts | 184° |
| 2026-04-30 10:33 | 49.88036 | -6.08880 | 37023 ft | 430 kts | 184° |
| 2026-04-30 10:33 | 49.82095 | -6.09941 | 37029 ft | 430 kts | 184° |
| 2026-04-30 10:34 | 49.76148 | -6.11000 | 37028 ft | 430 kts | 184° |
| 2026-04-30 10:34 | 49.70207 | -6.12056 | 37030 ft | 430 kts | 184° |
| 2026-04-30 10:35 | 49.64264 | -6.13110 | 37037 ft | 429 kts | 184° |
| 2026-04-30 10:35 | 49.58335 | -6.14159 | 37029 ft | 429 kts | 184° |
| 2026-04-30 10:36 | 49.52419 | -6.15292 | 37024 ft | 429 kts | 189° |
| 2026-04-30 10:36 | 49.46665 | -6.17571 | 37029 ft | 430 kts | 193° |
| 2026-04-30 10:37 | 49.40904 | -6.19987 | 37030 ft | 429 kts | 192° |
| 2026-04-30 10:37 | 49.35139 | -6.22372 | 37023 ft | 429 kts | 192° |
| 2026-04-30 10:38 | 49.29375 | -6.24723 | 37019 ft | 428 kts | 192° |
| 2026-04-30 10:38 | 49.23614 | -6.27057 | 37020 ft | 428 kts | 192° |
| 2026-04-30 10:39 | 49.17848 | -6.29385 | 37033 ft | 429 kts | 192° |
| 2026-04-30 10:39 | 49.12056 | -6.31718 | 37020 ft | 431 kts | 192° |
| 2026-04-30 10:40 | 49.06251 | -6.34052 | 37030 ft | 432 kts | 192° |
| 2026-04-30 10:40 | 49.00442 | -6.36382 | 37026 ft | 433 kts | 192° |
| 2026-04-30 10:41 | 48.94641 | -6.38703 | 37026 ft | 434 kts | 192° |
| 2026-04-30 10:41 | 48.88798 | -6.41035 | 37028 ft | 435 kts | 193° |
| 2026-04-30 10:42 | 48.82938 | -6.43369 | 37029 ft | 436 kts | 193° |
| 2026-04-30 10:42 | 48.77070 | -6.45700 | 37027 ft | 436 kts | 193° |
| 2026-04-30 10:43 | 48.71197 | -6.48027 | 37026 ft | 436 kts | 193° |
| 2026-04-30 10:43 | 48.65323 | -6.50349 | 37021 ft | 436 kts | 193° |
| 2026-04-30 10:44 | 48.59469 | -6.52658 | 37021 ft | 435 kts | 193° |
| 2026-04-30 10:44 | 48.53625 | -6.54957 | 37021 ft | 433 kts | 193° |
| 2026-04-30 10:45 | 48.47798 | -6.57245 | 37023 ft | 432 kts | 193° |
| 2026-04-30 10:45 | 48.41986 | -6.59520 | 37022 ft | 431 kts | 193° |
| 2026-04-30 10:46 | 48.36195 | -6.61782 | 37019 ft | 430 kts | 193° |
| 2026-04-30 10:46 | 48.30416 | -6.64035 | 37024 ft | 429 kts | 193° |
| 2026-04-30 10:47 | 48.24648 | -6.66277 | 37024 ft | 428 kts | 193° |
| 2026-04-30 10:47 | 48.18880 | -6.68514 | 37013 ft | 428 kts | 193° |
| 2026-04-30 10:48 | 48.13121 | -6.70743 | 37026 ft | 428 kts | 193° |
| 2026-04-30 10:48 | 48.07351 | -6.72970 | 37020 ft | 429 kts | 193° |
| 2026-04-30 10:49 | 48.01566 | -6.75199 | 37020 ft | 430 kts | 193° |
| 2026-04-30 10:49 | 47.95765 | -6.77428 | 37031 ft | 431 kts | 193° |
| 2026-04-30 10:50 | 47.89950 | -6.79658 | 37029 ft | 432 kts | 193° |
| 2026-04-30 10:50 | 47.84116 | -6.81890 | 37025 ft | 433 kts | 193° |
| 2026-04-30 10:51 | 47.79256 | -6.83745 | 37029 ft | 434 kts | 193° |
| 2026-04-30 10:51 | 47.73394 | -6.85978 | 37027 ft | 435 kts | 193° |
| 2026-04-30 10:52 | 47.66563 | -6.88574 | 37030 ft | 436 kts | 193° |
| 2026-04-30 10:52 | 47.61632 | -6.90443 | 37027 ft | 437 kts | 193° |
| 2026-04-30 10:53 | 47.55739 | -6.92673 | 37029 ft | 437 kts | 193° |
| 2026-04-30 10:53 | 47.49885 | -6.94884 | 37032 ft | 437 kts | 193° |
| 2026-04-30 10:54 | 47.43989 | -6.97106 | 37033 ft | 437 kts | 193° |
| 2026-04-30 10:54 | 47.38105 | -6.99379 | 37029 ft | 437 kts | 194° |
| 2026-04-30 10:55 | 47.32233 | -7.01671 | 37031 ft | 437 kts | 194° |
| 2026-04-30 10:55 | 47.26360 | -7.03954 | 37030 ft | 436 kts | 194° |
| 2026-04-30 10:56 | 47.20493 | -7.06225 | 37032 ft | 436 kts | 194° |
| 2026-04-30 10:56 | 47.14629 | -7.08486 | 37032 ft | 436 kts | 194° |
| 2026-04-30 10:57 | 47.08764 | -7.10743 | 37037 ft | 436 kts | 194° |
| 2026-04-30 10:57 | 47.02898 | -7.12995 | 37033 ft | 436 kts | 194° |
| 2026-04-30 10:58 | 46.97038 | -7.15239 | 37036 ft | 436 kts | 194° |
| 2026-04-30 10:58 | 46.91172 | -7.17481 | 37034 ft | 436 kts | 194° |
| 2026-04-30 10:59 | 46.85305 | -7.19719 | 37037 ft | 436 kts | 194° |
| 2026-04-30 10:59 | 46.79437 | -7.21951 | 37036 ft | 436 kts | 194° |
| 2026-04-30 11:00 | 46.73565 | -7.24180 | 37041 ft | 436 kts | 194° |
| 2026-04-30 11:00 | 46.67696 | -7.26403 | 37037 ft | 436 kts | 194° |
| 2026-04-30 11:01 | 46.61821 | -7.28623 | 37047 ft | 436 kts | 194° |
| 2026-04-30 11:01 | 46.55946 | -7.30838 | 37044 ft | 436 kts | 194° |
| 2026-04-30 11:02 | 46.50113 | -7.33033 | 37046 ft | 436 kts | 195° |
| 2026-04-30 11:02 | 46.44193 | -7.35255 | 37044 ft | 436 kts | 195° |
| 2026-04-30 11:03 | 46.38362 | -7.37439 | 37039 ft | 436 kts | 195° |
| 2026-04-30 11:04 | 46.29549 | -7.40730 | 37039 ft | 436 kts | 195° |
| 2026-04-30 11:04 | 46.23682 | -7.42915 | 37044 ft | 435 kts | 195° |
| 2026-04-30 11:05 | 46.17817 | -7.45095 | 37041 ft | 435 kts | 195° |
| 2026-04-30 11:05 | 46.11960 | -7.47267 | 37046 ft | 434 kts | 195° |
| 2026-04-30 11:06 | 46.06118 | -7.49428 | 37042 ft | 434 kts | 195° |
| 2026-04-30 11:06 | 46.00276 | -7.51585 | 37049 ft | 433 kts | 195° |
| 2026-04-30 11:07 | 45.94450 | -7.53732 | 37048 ft | 432 kts | 195° |
| 2026-04-30 11:07 | 45.88626 | -7.55872 | 37054 ft | 431 kts | 195° |
| 2026-04-30 11:08 | 45.82816 | -7.58004 | 37051 ft | 431 kts | 196° |
| 2026-04-30 11:08 | 45.77009 | -7.60129 | 37056 ft | 430 kts | 196° |
| 2026-04-30 11:09 | 45.71211 | -7.62247 | 37057 ft | 430 kts | 196° |
| 2026-04-30 11:09 | 45.65454 | -7.64345 | 37061 ft | 429 kts | 196° |
| 2026-04-30 11:10 | 45.59667 | -7.66450 | 37062 ft | 429 kts | 196° |
| 2026-04-30 11:10 | 45.53881 | -7.68549 | 37059 ft | 429 kts | 196° |
| 2026-04-30 11:11 | 45.48097 | -7.70644 | 37064 ft | 429 kts | 196° |
| 2026-04-30 11:11 | 45.42315 | -7.72733 | 37062 ft | 428 kts | 196° |
| 2026-04-30 11:12 | 45.36539 | -7.74816 | 37064 ft | 428 kts | 196° |
| 2026-04-30 11:12 | 45.33654 | -7.75855 | 36760 ft | 427 kts | 196° |
| 2026-04-30 11:12 | 45.30798 | -7.76882 | 36896 ft | 420 kts | 196° |
| 2026-04-30 11:13 | 45.25163 | -7.78904 | 37015 ft | 416 kts | 197° |
| 2026-04-30 11:13 | 45.19558 | -7.80915 | 37058 ft | 416 kts | 197° |
| 2026-04-30 11:14 | 45.13931 | -7.82929 | 37071 ft | 418 kts | 197° |
| 2026-04-30 11:14 | 45.08281 | -7.84946 | 37071 ft | 419 kts | 197° |
| 2026-04-30 11:15 | 45.02611 | -7.86966 | 37072 ft | 421 kts | 197° |
| 2026-04-30 11:15 | 44.96987 | -7.89094 | 37066 ft | 421 kts | 201° |
| 2026-04-30 11:16 | 44.91475 | -7.91884 | 37065 ft | 421 kts | 202° |
| 2026-04-30 11:16 | 44.85969 | -7.94732 | 37069 ft | 422 kts | 202° |
| 2026-04-30 11:17 | 44.80453 | -7.97558 | 37069 ft | 422 kts | 202° |
| 2026-04-30 11:17 | 44.74935 | -8.00360 | 37072 ft | 421 kts | 202° |
| 2026-04-30 11:18 | 44.69418 | -8.03148 | 37071 ft | 421 kts | 202° |
| 2026-04-30 11:18 | 44.61166 | -8.07304 | 37073 ft | 420 kts | 202° |
| 2026-04-30 11:19 | 44.55670 | -8.10067 | 37074 ft | 419 kts | 202° |
| 2026-04-30 11:19 | 44.50193 | -8.12814 | 37070 ft | 418 kts | 202° |
| 2026-04-30 11:20 | 44.44716 | -8.15556 | 37081 ft | 417 kts | 202° |
| 2026-04-30 11:20 | 44.39253 | -8.18285 | 37071 ft | 417 kts | 202° |
| 2026-04-30 11:21 | 44.33787 | -8.21011 | 37074 ft | 417 kts | 202° |
| 2026-04-30 11:21 | 44.28361 | -8.23712 | 37073 ft | 417 kts | 202° |
| 2026-04-30 11:22 | 44.22899 | -8.26424 | 37073 ft | 417 kts | 202° |
| 2026-04-30 11:22 | 44.17430 | -8.29135 | 37078 ft | 417 kts | 202° |
| 2026-04-30 11:23 | 44.11963 | -8.31840 | 37078 ft | 417 kts | 202° |
| 2026-04-30 11:24 | 44.03760 | -8.35888 | 37078 ft | 417 kts | 202° |
| 2026-04-30 11:24 | 43.98289 | -8.38581 | 37076 ft | 417 kts | 202° |
| 2026-04-30 11:25 | 43.90070 | -8.42618 | 37077 ft | 417 kts | 202° |
| 2026-04-30 11:26 | 43.79121 | -8.47976 | 37073 ft | 417 kts | 202° |
| 2026-04-30 11:26 | 43.73645 | -8.50648 | 37071 ft | 417 kts | 202° |
| 2026-04-30 11:27 | 43.68175 | -8.53312 | 37075 ft | 416 kts | 202° |
| 2026-04-30 11:27 | 43.62713 | -8.55968 | 37071 ft | 416 kts | 202° |
| 2026-04-30 11:28 | 43.54529 | -8.59936 | 37067 ft | 415 kts | 201° |
| 2026-04-30 11:29 | 43.49078 | -8.62573 | 37069 ft | 415 kts | 201° |
| 2026-04-30 11:29 | 43.40918 | -8.66511 | 37071 ft | 414 kts | 201° |
| 2026-04-30 11:30 | 43.32803 | -8.70416 | 37069 ft | 413 kts | 201° |
| 2026-04-30 11:31 | 43.27344 | -8.73037 | 37064 ft | 413 kts | 201° |
| 2026-04-30 11:31 | 43.21960 | -8.75617 | 37071 ft | 413 kts | 201° |
| 2026-04-30 11:32 | 43.16545 | -8.78207 | 37067 ft | 412 kts | 201° |
| 2026-04-30 11:32 | 43.11124 | -8.80795 | 37078 ft | 412 kts | 201° |
| 2026-04-30 11:33 | 43.02999 | -8.84665 | 37083 ft | 412 kts | 201° |
| 2026-04-30 11:33 | 42.97585 | -8.87237 | 37089 ft | 412 kts | 201° |
| 2026-04-30 11:34 | 42.92158 | -8.89811 | 37089 ft | 413 kts | 201° |
| 2026-04-30 11:34 | 42.86733 | -8.92380 | 37098 ft | 413 kts | 201° |
| 2026-04-30 11:35 | 42.81302 | -8.94946 | 37087 ft | 413 kts | 201° |
| 2026-04-30 11:35 | 42.75868 | -8.97508 | 37092 ft | 413 kts | 201° |
| 2026-04-30 11:36 | 42.70432 | -9.00067 | 37094 ft | 413 kts | 201° |
| 2026-04-30 11:36 | 42.64996 | -9.02621 | 37095 ft | 414 kts | 201° |
| 2026-04-30 11:37 | 42.59558 | -9.05172 | 37094 ft | 414 kts | 201° |
| 2026-04-30 11:37 | 42.54120 | -9.07718 | 37088 ft | 413 kts | 201° |
| 2026-04-30 11:38 | 42.48685 | -9.10258 | 37092 ft | 413 kts | 201° |
| 2026-04-30 11:38 | 42.43255 | -9.12790 | 37089 ft | 412 kts | 201° |
| 2026-04-30 11:39 | 42.37830 | -9.15316 | 37089 ft | 412 kts | 201° |
| 2026-04-30 11:39 | 42.32446 | -9.17818 | 37087 ft | 412 kts | 201° |
| 2026-04-30 11:40 | 42.27024 | -9.20334 | 37085 ft | 412 kts | 201° |
| 2026-04-30 11:40 | 42.21614 | -9.22839 | 37083 ft | 412 kts | 201° |
| 2026-04-30 11:41 | 42.16188 | -9.25347 | 37079 ft | 412 kts | 201° |
| 2026-04-30 11:41 | 42.10768 | -9.27848 | 37086 ft | 412 kts | 200° |
| 2026-04-30 11:42 | 42.06225 | -9.29940 | 37085 ft | 412 kts | 200° |
| 2026-04-30 11:42 | 42.00804 | -9.32434 | 37087 ft | 412 kts | 200° |
| 2026-04-30 11:43 | 41.95418 | -9.34907 | 37085 ft | 412 kts | 200° |
| 2026-04-30 11:43 | 41.89927 | -9.37092 | 37087 ft | 413 kts | 195° |
| 2026-04-30 11:44 | 41.84316 | -9.38765 | 37077 ft | 413 kts | 194° |
| 2026-04-30 11:44 | 41.78706 | -9.40417 | 37089 ft | 413 kts | 194° |
| 2026-04-30 11:45 | 41.73090 | -9.42090 | 37079 ft | 413 kts | 194° |
| 2026-04-30 11:45 | 41.67481 | -9.43771 | 37093 ft | 413 kts | 194° |
| 2026-04-30 11:46 | 41.61871 | -9.45455 | 37087 ft | 413 kts | 194° |
| 2026-04-30 11:46 | 41.56265 | -9.47135 | 37086 ft | 413 kts | 194° |
| 2026-04-30 11:47 | 41.50661 | -9.48811 | 37086 ft | 412 kts | 194° |
| 2026-04-30 11:47 | 41.45071 | -9.50480 | 37087 ft | 412 kts | 194° |
| 2026-04-30 11:48 | 41.39504 | -9.52246 | 37085 ft | 411 kts | 197° |
| 2026-04-30 11:48 | 41.34016 | -9.54362 | 37087 ft | 410 kts | 198° |
| 2026-04-30 11:49 | 41.28547 | -9.56525 | 37088 ft | 410 kts | 198° |
| 2026-04-30 11:49 | 41.23069 | -9.58656 | 37096 ft | 410 kts | 197° |
| 2026-04-30 11:50 | 41.17591 | -9.60759 | 37086 ft | 410 kts | 197° |
| 2026-04-30 11:50 | 41.12110 | -9.62850 | 37094 ft | 410 kts | 197° |
| 2026-04-30 11:51 | 41.06630 | -9.64934 | 37088 ft | 410 kts | 197° |
| 2026-04-30 11:51 | 41.01148 | -9.67017 | 37097 ft | 410 kts | 197° |
| 2026-04-30 11:52 | 40.95662 | -9.69097 | 37088 ft | 410 kts | 197° |
| 2026-04-30 11:52 | 40.90173 | -9.71174 | 37087 ft | 410 kts | 197° |
| 2026-04-30 11:53 | 40.84679 | -9.73251 | 37090 ft | 410 kts | 197° |
| 2026-04-30 11:53 | 40.79224 | -9.75309 | 37091 ft | 410 kts | 197° |
| 2026-04-30 11:54 | 40.73733 | -9.77377 | 37095 ft | 410 kts | 197° |
| 2026-04-30 11:54 | 40.68247 | -9.79439 | 37094 ft | 410 kts | 197° |
| 2026-04-30 11:55 | 40.62745 | -9.81504 | 37087 ft | 411 kts | 197° |
| 2026-04-30 11:55 | 40.57253 | -9.83562 | 37093 ft | 411 kts | 197° |
| 2026-04-30 11:56 | 40.51751 | -9.85620 | 37090 ft | 411 kts | 197° |
| 2026-04-30 11:56 | 40.46260 | -9.87670 | 37091 ft | 411 kts | 196° |
| 2026-04-30 11:57 | 40.40766 | -9.89718 | 37096 ft | 410 kts | 196° |
| 2026-04-30 11:57 | 40.35277 | -9.91761 | 37096 ft | 410 kts | 196° |
| 2026-04-30 11:58 | 40.29785 | -9.93801 | 37095 ft | 410 kts | 196° |
| 2026-04-30 11:58 | 40.24293 | -9.95838 | 37096 ft | 410 kts | 196° |
| 2026-04-30 11:59 | 40.18808 | -9.97868 | 37094 ft | 410 kts | 196° |
| 2026-04-30 11:59 | 40.13365 | -9.99880 | 37097 ft | 409 kts | 196° |
| 2026-04-30 12:00 | 40.07880 | -10.01904 | 37097 ft | 409 kts | 196° |
| 2026-04-30 12:00 | 40.02395 | -10.03925 | 37097 ft | 409 kts | 196° |
| 2026-04-30 12:01 | 39.96910 | -10.05942 | 37097 ft | 409 kts | 196° |
| 2026-04-30 12:01 | 39.91423 | -10.07957 | 37094 ft | 410 kts | 196° |
| 2026-04-30 12:02 | 39.85940 | -10.09966 | 37098 ft | 410 kts | 196° |
| 2026-04-30 12:02 | 39.80450 | -10.11976 | 37097 ft | 410 kts | 196° |
| 2026-04-30 12:03 | 39.72213 | -10.14984 | 37103 ft | 410 kts | 196° |
| 2026-04-30 12:04 | 39.66717 | -10.16987 | 37100 ft | 410 kts | 196° |
| 2026-04-30 12:04 | 39.61220 | -10.18987 | 37099 ft | 410 kts | 196° |
| 2026-04-30 12:05 | 39.55754 | -10.20972 | 37100 ft | 411 kts | 195° |
| 2026-04-30 12:05 | 39.50252 | -10.22967 | 37098 ft | 411 kts | 196° |
| 2026-04-30 12:06 | 39.44748 | -10.24960 | 37102 ft | 411 kts | 195° |
| 2026-04-30 12:06 | 39.39246 | -10.26948 | 37099 ft | 411 kts | 195° |
| 2026-04-30 12:07 | 39.33741 | -10.28935 | 37100 ft | 410 kts | 195° |
| 2026-04-30 12:07 | 39.28245 | -10.30915 | 37103 ft | 410 kts | 195° |
| 2026-04-30 12:08 | 39.22743 | -10.32894 | 37108 ft | 410 kts | 195° |
| 2026-04-30 12:08 | 39.17243 | -10.34869 | 37102 ft | 410 kts | 195° |
| 2026-04-30 12:09 | 39.11751 | -10.36838 | 37098 ft | 410 kts | 195° |
| 2026-04-30 12:09 | 39.06258 | -10.38804 | 37094 ft | 410 kts | 195° |
| 2026-04-30 12:10 | 39.00768 | -10.40765 | 37102 ft | 410 kts | 195° |
| 2026-04-30 12:10 | 38.95272 | -10.42726 | 37110 ft | 409 kts | 195° |
| 2026-04-30 12:11 | 38.89783 | -10.44682 | 37105 ft | 409 kts | 195° |
| 2026-04-30 12:11 | 38.84290 | -10.46635 | 37107 ft | 409 kts | 195° |
| 2026-04-30 12:12 | 38.78799 | -10.48585 | 37098 ft | 410 kts | 195° |
| 2026-04-30 12:12 | 38.73305 | -10.50532 | 37102 ft | 410 kts | 195° |
| 2026-04-30 12:13 | 38.67808 | -10.52478 | 37104 ft | 410 kts | 195° |
| 2026-04-30 12:13 | 38.62311 | -10.54420 | 37104 ft | 410 kts | 195° |
| 2026-04-30 12:14 | 38.56845 | -10.56348 | 37103 ft | 410 kts | 195° |
| 2026-04-30 12:14 | 38.51339 | -10.58288 | 37106 ft | 410 kts | 195° |
| 2026-04-30 12:15 | 38.45832 | -10.60225 | 37100 ft | 411 kts | 195° |
| 2026-04-30 12:15 | 38.40319 | -10.62160 | 37108 ft | 411 kts | 195° |
| 2026-04-30 12:16 | 38.34804 | -10.64094 | 37108 ft | 411 kts | 195° |
| 2026-04-30 12:16 | 38.29284 | -10.66026 | 37106 ft | 411 kts | 195° |
| 2026-04-30 12:17 | 38.21002 | -10.68919 | 37102 ft | 412 kts | 195° |
| 2026-04-30 12:17 | 38.15474 | -10.70846 | 37107 ft | 412 kts | 195° |
| 2026-04-30 12:18 | 38.09947 | -10.72770 | 37106 ft | 412 kts | 195° |
| 2026-04-30 12:18 | 38.04452 | -10.74680 | 37106 ft | 412 kts | 195° |
| 2026-04-30 12:19 | 37.98918 | -10.76600 | 37108 ft | 412 kts | 195° |
| 2026-04-30 12:19 | 37.93379 | -10.78519 | 37111 ft | 413 kts | 195° |
| 2026-04-30 12:20 | 37.87841 | -10.80435 | 37110 ft | 413 kts | 196° |
| 2026-04-30 12:20 | 37.82298 | -10.82350 | 37105 ft | 413 kts | 196° |
| 2026-04-30 12:21 | 37.76757 | -10.84260 | 37111 ft | 413 kts | 196° |
| 2026-04-30 12:21 | 37.71208 | -10.86171 | 37111 ft | 413 kts | 196° |
| 2026-04-30 12:22 | 37.65655 | -10.88080 | 37108 ft | 413 kts | 196° |
| 2026-04-30 12:22 | 37.60108 | -10.89984 | 37112 ft | 414 kts | 196° |
| 2026-04-30 12:23 | 37.54587 | -10.91876 | 37109 ft | 414 kts | 196° |
| 2026-04-30 12:23 | 37.49029 | -10.93778 | 37110 ft | 414 kts | 196° |
| 2026-04-30 12:24 | 37.43470 | -10.95677 | 37108 ft | 414 kts | 196° |
| 2026-04-30 12:24 | 37.37908 | -10.97575 | 37108 ft | 414 kts | 196° |
| 2026-04-30 12:25 | 37.32342 | -10.99470 | 37106 ft | 415 kts | 196° |
| 2026-04-30 12:25 | 37.26774 | -11.01364 | 37108 ft | 415 kts | 196° |
| 2026-04-30 12:26 | 37.21203 | -11.03256 | 37108 ft | 415 kts | 196° |
| 2026-04-30 12:26 | 37.15629 | -11.05145 | 37107 ft | 415 kts | 196° |
| 2026-04-30 12:27 | 37.10053 | -11.07033 | 37112 ft | 415 kts | 196° |
| 2026-04-30 12:27 | 37.04471 | -11.08920 | 37111 ft | 415 kts | 196° |
| 2026-04-30 12:28 | 36.98890 | -11.10803 | 37112 ft | 416 kts | 197° |
| 2026-04-30 12:28 | 36.93300 | -11.12687 | 37113 ft | 416 kts | 197° |
| 2026-04-30 12:29 | 36.87712 | -11.14568 | 37110 ft | 416 kts | 197° |
| 2026-04-30 12:29 | 36.82123 | -11.16445 | 37110 ft | 416 kts | 197° |
| 2026-04-30 12:30 | 36.76560 | -11.18311 | 37110 ft | 417 kts | 197° |
| 2026-04-30 12:30 | 36.70963 | -11.20186 | 37113 ft | 417 kts | 197° |
| 2026-04-30 12:31 | 36.65357 | -11.22061 | 37115 ft | 417 kts | 197° |
| 2026-04-30 12:31 | 36.59747 | -11.23935 | 37115 ft | 418 kts | 197° |
| 2026-04-30 12:32 | 36.54130 | -11.25807 | 37112 ft | 418 kts | 197° |
| 2026-04-30 12:32 | 36.49419 | -11.27376 | 37113 ft | 418 kts | 197° |
| 2026-04-30 12:33 | 36.43794 | -11.29246 | 37115 ft | 419 kts | 197° |
| 2026-04-30 12:33 | 36.38156 | -11.31118 | 37115 ft | 419 kts | 197° |
| 2026-04-30 12:34 | 36.32547 | -11.32978 | 37113 ft | 420 kts | 197° |
| 2026-04-30 12:34 | 36.26902 | -11.34847 | 37114 ft | 421 kts | 197° |
| 2026-04-30 12:35 | 36.21240 | -11.36718 | 37115 ft | 421 kts | 198° |
| 2026-04-30 12:35 | 36.15569 | -11.38590 | 37117 ft | 422 kts | 198° |
| 2026-04-30 12:36 | 36.09889 | -11.40463 | 37117 ft | 423 kts | 198° |
| 2026-04-30 12:36 | 36.04195 | -11.42337 | 37117 ft | 424 kts | 198° |
| 2026-04-30 12:37 | 35.98509 | -11.44269 | 37108 ft | 423 kts | 203° |
| 2026-04-30 12:37 | 35.93350 | -11.47602 | 37117 ft | 417 kts | 218° |
| 2026-04-30 12:38 | 35.88630 | -11.51798 | 37119 ft | 419 kts | 219° |
| 2026-04-30 12:38 | 35.83902 | -11.56012 | 37126 ft | 420 kts | 219° |
| 2026-04-30 12:39 | 35.79137 | -11.60216 | 37112 ft | 422 kts | 219° |
| 2026-04-30 12:39 | 35.74347 | -11.64415 | 37126 ft | 423 kts | 219° |
| 2026-04-30 12:40 | 35.69534 | -11.68623 | 37119 ft | 425 kts | 219° |
| 2026-04-30 12:40 | 35.64712 | -11.72830 | 37128 ft | 426 kts | 219° |
| 2026-04-30 12:41 | 35.59879 | -11.77042 | 37121 ft | 426 kts | 219° |
| 2026-04-30 12:41 | 35.55071 | -11.81226 | 37115 ft | 427 kts | 220° |
| 2026-04-30 12:42 | 35.50224 | -11.85437 | 37111 ft | 427 kts | 220° |
| 2026-04-30 12:42 | 35.45344 | -11.89671 | 37118 ft | 427 kts | 220° |
| 2026-04-30 12:43 | 35.40496 | -11.93871 | 37122 ft | 427 kts | 220° |
| 2026-04-30 12:43 | 35.35676 | -11.98040 | 37121 ft | 427 kts | 220° |
| 2026-04-30 12:44 | 35.30830 | -12.02224 | 37121 ft | 426 kts | 221° |
| 2026-04-30 12:44 | 35.25982 | -12.06406 | 37121 ft | 426 kts | 221° |
| 2026-04-30 12:45 | 35.21132 | -12.10582 | 37122 ft | 426 kts | 221° |
| 2026-04-30 12:45 | 35.16281 | -12.14755 | 37124 ft | 426 kts | 221° |
| 2026-04-30 12:46 | 35.11429 | -12.18921 | 37123 ft | 427 kts | 221° |
| 2026-04-30 12:46 | 35.06566 | -12.23090 | 37123 ft | 427 kts | 221° |
| 2026-04-30 12:47 | 35.01697 | -12.27258 | 37126 ft | 428 kts | 221° |
| 2026-04-30 12:47 | 34.96819 | -12.31427 | 37126 ft | 428 kts | 221° |
| 2026-04-30 12:48 | 34.91934 | -12.35597 | 37127 ft | 429 kts | 222° |
| 2026-04-30 12:48 | 34.87036 | -12.39770 | 37128 ft | 430 kts | 222° |
| 2026-04-30 12:49 | 34.82134 | -12.43942 | 37123 ft | 430 kts | 222° |
| 2026-04-30 12:49 | 34.77222 | -12.48116 | 37125 ft | 431 kts | 222° |
| 2026-04-30 12:50 | 34.72301 | -12.52291 | 37126 ft | 431 kts | 222° |
| 2026-04-30 12:50 | 34.67375 | -12.56465 | 37128 ft | 432 kts | 222° |
| 2026-04-30 12:51 | 34.62447 | -12.60634 | 37129 ft | 432 kts | 222° |
| 2026-04-30 12:51 | 34.57513 | -12.64801 | 37127 ft | 432 kts | 222° |
| 2026-04-30 12:52 | 34.52611 | -12.68936 | 37126 ft | 432 kts | 222° |
| 2026-04-30 12:52 | 34.47676 | -12.73092 | 37127 ft | 432 kts | 222° |
| 2026-04-30 12:53 | 34.42746 | -12.77239 | 37129 ft | 431 kts | 222° |
| 2026-04-30 12:53 | 34.37819 | -12.81377 | 37129 ft | 431 kts | 222° |
| 2026-04-30 12:54 | 34.32891 | -12.85510 | 37129 ft | 430 kts | 222° |
| 2026-04-30 12:54 | 34.27969 | -12.89634 | 37125 ft | 430 kts | 222° |
| 2026-04-30 12:55 | 34.23061 | -12.93749 | 37122 ft | 429 kts | 223° |
| 2026-04-30 12:55 | 34.18161 | -12.97880 | 37123 ft | 429 kts | 223° |
| 2026-04-30 12:56 | 34.13273 | -13.01999 | 37128 ft | 428 kts | 223° |
| 2026-04-30 12:56 | 34.08382 | -13.06112 | 37129 ft | 428 kts | 223° |
| 2026-04-30 12:57 | 34.03532 | -13.10184 | 37129 ft | 428 kts | 223° |
| 2026-04-30 12:57 | 33.98653 | -13.14274 | 37127 ft | 427 kts | 223° |
| 2026-04-30 12:58 | 33.93776 | -13.18356 | 37127 ft | 427 kts | 223° |
| 2026-04-30 12:58 | 33.88902 | -13.22431 | 37124 ft | 426 kts | 223° |
| 2026-04-30 12:59 | 33.84028 | -13.26499 | 37124 ft | 426 kts | 223° |
| 2026-04-30 12:59 | 33.79161 | -13.30556 | 37123 ft | 425 kts | 223° |
| 2026-04-30 13:00 | 33.74299 | -13.34603 | 37128 ft | 425 kts | 223° |
| 2026-04-30 13:00 | 33.69438 | -13.38643 | 37126 ft | 424 kts | 223° |
| 2026-04-30 13:01 | 33.64585 | -13.42672 | 37129 ft | 424 kts | 223° |
| 2026-04-30 13:01 | 33.59727 | -13.46699 | 37129 ft | 424 kts | 223° |
| 2026-04-30 13:02 | 33.54869 | -13.50721 | 37134 ft | 424 kts | 223° |
| 2026-04-30 13:02 | 33.50002 | -13.54743 | 37127 ft | 425 kts | 223° |
| 2026-04-30 13:03 | 33.45142 | -13.58755 | 37129 ft | 424 kts | 223° |
| 2026-04-30 13:03 | 33.40277 | -13.62765 | 37130 ft | 424 kts | 223° |
| 2026-04-30 13:04 | 33.35450 | -13.66738 | 37127 ft | 424 kts | 223° |
| 2026-04-30 13:04 | 33.30598 | -13.70727 | 37127 ft | 423 kts | 223° |
| 2026-04-30 13:05 | 33.25746 | -13.74711 | 37130 ft | 422 kts | 223° |
| 2026-04-30 13:06 | 33.18485 | -13.80664 | 37127 ft | 421 kts | 222° |
| 2026-04-30 13:06 | 33.13652 | -13.84615 | 37131 ft | 421 kts | 222° |
| 2026-04-30 13:07 | 33.08816 | -13.88544 | 37130 ft | 420 kts | 222° |
| 2026-04-30 13:07 | 33.03979 | -13.92464 | 37132 ft | 420 kts | 222° |
| 2026-04-30 13:08 | 32.99150 | -13.96375 | 37130 ft | 419 kts | 222° |
| 2026-04-30 13:08 | 32.94327 | -14.00278 | 37137 ft | 419 kts | 222° |
| 2026-04-30 13:09 | 32.89503 | -14.04177 | 37128 ft | 419 kts | 222° |
| 2026-04-30 13:09 | 32.84677 | -14.08073 | 37131 ft | 419 kts | 222° |
| 2026-04-30 13:10 | 32.79854 | -14.11961 | 37131 ft | 419 kts | 222° |
| 2026-04-30 13:10 | 32.75027 | -14.15847 | 37128 ft | 419 kts | 222° |
| 2026-04-30 13:11 | 32.70199 | -14.19729 | 37130 ft | 419 kts | 222° |
| 2026-04-30 13:11 | 32.65370 | -14.23606 | 37133 ft | 419 kts | 222° |
| 2026-04-30 13:12 | 32.60571 | -14.27455 | 37131 ft | 419 kts | 222° |
| 2026-04-30 13:12 | 32.55740 | -14.31323 | 37129 ft | 419 kts | 222° |
| 2026-04-30 13:13 | 32.48489 | -14.37120 | 37129 ft | 419 kts | 222° |
| 2026-04-30 13:14 | 32.41232 | -14.42910 | 37129 ft | 419 kts | 221° |
| 2026-04-30 13:14 | 32.33986 | -14.48681 | 37130 ft | 419 kts | 221° |
| 2026-04-30 13:15 | 32.26695 | -14.54394 | 37128 ft | 421 kts | 219° |
| 2026-04-30 13:16 | 32.21660 | -14.57946 | 37127 ft | 422 kts | 218° |
| 2026-04-30 13:16 | 32.16631 | -14.61428 | 37126 ft | 421 kts | 218° |
| 2026-04-30 13:17 | 32.09072 | -14.66711 | 37124 ft | 421 kts | 219° |
| 2026-04-30 13:18 | 32.01539 | -14.72005 | 37127 ft | 420 kts | 219° |
| 2026-04-30 13:18 | 31.94003 | -14.77296 | 37127 ft | 420 kts | 219° |
| 2026-04-30 13:19 | 31.88985 | -14.80813 | 37129 ft | 420 kts | 219° |
| 2026-04-30 13:19 | 31.83966 | -14.84325 | 37129 ft | 420 kts | 219° |
| 2026-04-30 13:20 | 31.78949 | -14.87831 | 37126 ft | 420 kts | 219° |
| 2026-04-30 13:20 | 31.73929 | -14.91336 | 37126 ft | 420 kts | 219° |
| 2026-04-30 13:21 | 31.68911 | -14.94834 | 37128 ft | 419 kts | 219° |
| 2026-04-30 13:22 | 31.61380 | -15.00077 | 37126 ft | 419 kts | 219° |
| 2026-04-30 13:22 | 31.54691 | -15.04724 | 37128 ft | 419 kts | 219° |
| 2026-04-30 13:23 | 31.47161 | -15.09947 | 37124 ft | 419 kts | 219° |
| 2026-04-30 13:24 | 31.37111 | -15.16901 | 37128 ft | 419 kts | 219° |
| 2026-04-30 13:25 | 31.27059 | -15.23840 | 37140 ft | 419 kts | 219° |
| 2026-04-30 13:26 | 31.14494 | -15.32489 | 37118 ft | 419 kts | 219° |
| 2026-04-30 13:28 | 31.01930 | -15.41111 | 37116 ft | 419 kts | 219° |
| 2026-04-30 13:28 | 30.94394 | -15.46269 | 37121 ft | 419 kts | 219° |
| 2026-04-30 13:29 | 30.84377 | -15.53111 | 37124 ft | 418 kts | 219° |
| 2026-04-30 13:31 | 30.71822 | -15.61664 | 37126 ft | 418 kts | 219° |
| 2026-04-30 13:32 | 30.59257 | -15.70196 | 37124 ft | 418 kts | 219° |
| 2026-04-30 13:33 | 30.49209 | -15.77001 | 37121 ft | 418 kts | 219° |
| 2026-04-30 13:34 | 30.41677 | -15.82092 | 37118 ft | 418 kts | 219° |
| 2026-04-30 13:35 | 30.31670 | -15.88840 | 37119 ft | 417 kts | 219° |
| 2026-04-30 13:36 | 30.21639 | -15.95589 | 37119 ft | 417 kts | 218° |
| 2026-04-30 13:36 | 30.14119 | -16.00638 | 37120 ft | 417 kts | 218° |
| 2026-04-30 13:37 | 30.06601 | -16.05676 | 37118 ft | 416 kts | 218° |
| 2026-04-30 13:38 | 29.99101 | -16.10694 | 37111 ft | 415 kts | 218° |
| 2026-04-30 13:39 | 29.89105 | -16.17368 | 37119 ft | 415 kts | 218° |
| 2026-04-30 13:40 | 29.81611 | -16.22362 | 37118 ft | 414 kts | 218° |
| 2026-04-30 13:40 | 29.76653 | -16.25660 | 37115 ft | 414 kts | 218° |
| 2026-04-30 13:41 | 29.71625 | -16.29002 | 37111 ft | 414 kts | 218° |
| 2026-04-30 13:41 | 29.66668 | -16.32294 | 37115 ft | 414 kts | 218° |
| 2026-04-30 13:42 | 29.61674 | -16.35606 | 37116 ft | 414 kts | 218° |
| 2026-04-30 13:42 | 29.54699 | -16.41215 | 36917 ft | 406 kts | 227° |
| 2026-04-30 13:43 | 29.52554 | -16.43297 | 36644 ft | 401 kts | 228° |
| 2026-04-30 13:43 | 29.50440 | -16.45356 | 36246 ft | 396 kts | 228° |
| 2026-04-30 13:43 | 29.48353 | -16.47376 | 35896 ft | 391 kts | 227° |
| 2026-04-30 13:43 | 29.46270 | -16.49375 | 35488 ft | 388 kts | 227° |
| 2026-04-30 13:44 | 29.44200 | -16.51346 | 35108 ft | 385 kts | 227° |
| 2026-04-30 13:44 | 29.42147 | -16.53291 | 34727 ft | 382 kts | 227° |
| 2026-04-30 13:44 | 29.40104 | -16.55219 | 34354 ft | 379 kts | 227° |
| 2026-04-30 13:44 | 29.38075 | -16.57130 | 33965 ft | 376 kts | 227° |
| 2026-04-30 13:45 | 29.34063 | -16.60903 | 33155 ft | 370 kts | 226° |
| 2026-04-30 13:45 | 29.32081 | -16.62764 | 32780 ft | 367 kts | 226° |
| 2026-04-30 13:45 | 29.30113 | -16.64611 | 32411 ft | 364 kts | 226° |
| 2026-04-30 13:46 | 29.28164 | -16.66440 | 32049 ft | 361 kts | 226° |
| 2026-04-30 13:46 | 29.26228 | -16.68255 | 31695 ft | 358 kts | 226° |
| 2026-04-30 13:46 | 29.24310 | -16.70054 | 31345 ft | 355 kts | 226° |
| 2026-04-30 13:46 | 29.22402 | -16.71841 | 30996 ft | 353 kts | 226° |
| 2026-04-30 13:47 | 29.20507 | -16.73615 | 30656 ft | 351 kts | 226° |
| 2026-04-30 13:47 | 29.18625 | -16.75377 | 30309 ft | 349 kts | 226° |
| 2026-04-30 13:47 | 29.16757 | -16.77125 | 29927 ft | 346 kts | 226° |
| 2026-04-30 13:47 | 29.14895 | -16.78865 | 29532 ft | 344 kts | 225° |
| 2026-04-30 13:48 | 29.12870 | -16.80350 | 28867 ft | 358 kts | 212° |
| 2026-04-30 13:48 | 29.10508 | -16.81374 | 28306 ft | 368 kts | 203° |
| 2026-04-30 13:48 | 29.07982 | -16.81954 | 27899 ft | 369 kts | 196° |
| 2026-04-30 13:48 | 29.05465 | -16.82371 | 27395 ft | 364 kts | 195° |
| 2026-04-30 13:49 | 29.02966 | -16.82769 | 26754 ft | 362 kts | 195° |
| 2026-04-30 13:49 | 29.00474 | -16.83166 | 26137 ft | 361 kts | 195° |
| 2026-04-30 13:49 | 28.97999 | -16.83567 | 25585 ft | 357 kts | 195° |
| 2026-04-30 13:49 | 28.95547 | -16.83968 | 25051 ft | 354 kts | 195° |
| 2026-04-30 13:50 | 28.93124 | -16.84369 | 24523 ft | 351 kts | 195° |
| 2026-04-30 13:50 | 28.88334 | -16.85171 | 23458 ft | 345 kts | 195° |
| 2026-04-30 13:50 | 28.85970 | -16.85568 | 22865 ft | 342 kts | 195° |
| 2026-04-30 13:51 | 28.83623 | -16.85962 | 22290 ft | 339 kts | 195° |
| 2026-04-30 13:51 | 28.81304 | -16.86352 | 21732 ft | 336 kts | 195° |
| 2026-04-30 13:51 | 28.78998 | -16.86740 | 21179 ft | 333 kts | 195° |
| 2026-04-30 13:51 | 28.76714 | -16.87124 | 20635 ft | 331 kts | 195° |
| 2026-04-30 13:52 | 28.74446 | -16.87506 | 20099 ft | 328 kts | 195° |
| 2026-04-30 13:52 | 28.72195 | -16.87884 | 19581 ft | 326 kts | 195° |
| 2026-04-30 13:52 | 28.69959 | -16.88260 | 19072 ft | 324 kts | 194° |
| 2026-04-30 13:52 | 28.67735 | -16.88633 | 18571 ft | 322 kts | 194° |
| 2026-04-30 13:53 | 28.65529 | -16.89004 | 18028 ft | 320 kts | 194° |
| 2026-04-30 13:53 | 28.63338 | -16.89371 | 17478 ft | 317 kts | 194° |
| 2026-04-30 13:53 | 28.61163 | -16.89736 | 16941 ft | 315 kts | 194° |
| 2026-04-30 13:53 | 28.59006 | -16.90097 | 16428 ft | 312 kts | 194° |
| 2026-04-30 13:54 | 28.56868 | -16.90455 | 15910 ft | 310 kts | 193° |
| 2026-04-30 13:54 | 28.54743 | -16.90811 | 15415 ft | 308 kts | 193° |
| 2026-04-30 13:54 | 28.52630 | -16.91165 | 14912 ft | 306 kts | 193° |
| 2026-04-30 13:54 | 28.50533 | -16.91516 | 14434 ft | 304 kts | 193° |
| 2026-04-30 13:55 | 28.48450 | -16.91864 | 13962 ft | 301 kts | 193° |
| 2026-04-30 13:55 | 28.46382 | -16.92210 | 13448 ft | 299 kts | 192° |
| 2026-04-30 13:55 | 28.44332 | -16.92552 | 12963 ft | 296 kts | 192° |
| 2026-04-30 13:55 | 28.42307 | -16.92890 | 12489 ft | 292 kts | 192° |
| 2026-04-30 13:56 | 28.40307 | -16.93224 | 12022 ft | 289 kts | 192° |
| 2026-04-30 13:56 | 28.38326 | -16.93555 | 11556 ft | 287 kts | 191° |
| 2026-04-30 13:56 | 28.36361 | -16.93883 | 11103 ft | 284 kts | 191° |
| 2026-04-30 13:56 | 28.34411 | -16.94208 | 10652 ft | 281 kts | 191° |
| 2026-04-30 13:57 | 28.32512 | -16.94525 | 10267 ft | 277 kts | 191° |
| 2026-04-30 13:57 | 28.30604 | -16.94843 | 9934 ft | 270 kts | 191° |
| 2026-04-30 13:57 | 28.28794 | -16.95144 | 9611 ft | 263 kts | 190° |
| 2026-04-30 13:57 | 28.27006 | -16.95442 | 9314 ft | 256 kts | 190° |
| 2026-04-30 13:58 | 28.25242 | -16.95736 | 9072 ft | 256 kts | 190° |
| 2026-04-30 13:58 | 28.21820 | -16.96305 | 8751 ft | 245 kts | 190° |
| 2026-04-30 13:58 | 28.20131 | -16.96587 | 8475 ft | 246 kts | 190° |
| 2026-04-30 13:59 | 28.18438 | -16.96868 | 8216 ft | 245 kts | 190° |
| 2026-04-30 13:59 | 28.16740 | -16.96999 | 7936 ft | 247 kts | 172° |
| 2026-04-30 13:59 | 28.15101 | -16.96398 | 7686 ft | 248 kts | 160° |
| 2026-04-30 13:59 | 28.13505 | -16.95676 | 7440 ft | 247 kts | 160° |
| 2026-04-30 14:00 | 28.11911 | -16.94953 | 7184 ft | 246 kts | 160° |
| 2026-04-30 14:00 | 28.08733 | -16.93522 | 6696 ft | 245 kts | 160° |
| 2026-04-30 14:00 | 28.07147 | -16.92812 | 6465 ft | 244 kts | 160° |
| 2026-04-30 14:01 | 28.05565 | -16.92106 | 6194 ft | 244 kts | 160° |
| 2026-04-30 14:01 | 28.03989 | -16.91404 | 5949 ft | 243 kts | 159° |
| 2026-04-30 14:01 | 28.02417 | -16.90705 | 5703 ft | 242 kts | 159° |
| 2026-04-30 14:01 | 28.00855 | -16.90002 | 5453 ft | 242 kts | 158° |
| 2026-04-30 14:02 | 27.99326 | -16.89278 | 5368 ft | 232 kts | 157° |
| 2026-04-30 14:02 | 27.97885 | -16.88590 | 5292 ft | 218 kts | 157° |
| 2026-04-30 14:02 | 27.96533 | -16.87945 | 5176 ft | 206 kts | 157° |
| 2026-04-30 14:02 | 27.95251 | -16.87256 | 4855 ft | 203 kts | 142° |
| 2026-04-30 14:03 | 27.94551 | -16.85946 | 4584 ft | 195 kts | 95° |
| 2026-04-30 14:03 | 27.94864 | -16.84501 | 4259 ft | 192 kts | 59° |
| 2026-04-30 14:03 | 27.95471 | -16.83174 | 3974 ft | 190 kts | 67° |
| 2026-04-30 14:03 | 27.95970 | -16.81795 | 3692 ft | 189 kts | 69° |
| 2026-04-30 14:04 | 27.96448 | -16.80419 | 3401 ft | 188 kts | 69° |
| 2026-04-30 14:04 | 27.96913 | -16.79070 | 3270 ft | 178 kts | 70° |
| 2026-04-30 14:04 | 27.97354 | -16.77789 | 3081 ft | 173 kts | 70° |
| 2026-04-30 14:04 | 27.97778 | -16.76559 | 3045 ft | 165 kts | 70° |
| 2026-04-30 14:05 | 27.98196 | -16.75345 | 2994 ft | 164 kts | 70° |
| 2026-04-30 14:05 | 27.98606 | -16.74155 | 2982 ft | 163 kts | 70° |
| 2026-04-30 14:05 | 27.99022 | -16.72946 | 2828 ft | 167 kts | 70° |
| 2026-04-30 14:05 | 27.99434 | -16.71755 | 2619 ft | 159 kts | 70° |
| 2026-04-30 14:06 | 27.99825 | -16.70610 | 2428 ft | 152 kts | 70° |
| 2026-04-30 14:06 | 28.00588 | -16.68394 | 2041 ft | 150 kts | 71° |
| 2026-04-30 14:07 | 28.01370 | -16.66154 | 1673 ft | 154 kts | 70° |
| 2026-04-30 14:07 | 28.01771 | -16.65015 | 1441 ft | 157 kts | 71° |
| 2026-04-30 14:07 | 28.02158 | -16.63854 | 1209 ft | 157 kts | 72° |
| 2026-04-30 14:08 | 28.02938 | -16.61558 | 764 ft | 159 kts | 70° |
| 2026-04-30 14:08 | 28.03345 | -16.60407 | 530 ft | 160 kts | 71° |
| 2026-04-30 14:08 | 28.04152 | -16.58096 | 195 ft | 147 kts | 67° |
| 2026-04-30 14:09 | 28.04454 | -16.57231 | 201 ft | 67 kts | 68° |
| 2026-04-30 14:09 | 28.04655 | -16.56880 | 207 ft | 22 kts | 47° |
| 2026-04-30 14:09 | 28.04752 | -16.56932 | 219 ft | 18 kts | 248° |
| 2026-04-30 14:10 | 28.04707 | -16.57060 | 223 ft | 17 kts | 249° |
| 2026-04-30 14:10 | 28.04656 | -16.57179 | 222 ft | 17 kts | 246° |
| 2026-04-30 14:10 | 28.04615 | -16.57298 | 222 ft | 16 kts | 248° |
| 2026-04-30 14:10 | 28.04575 | -16.57411 | 223 ft | 15 kts | 248° |
| 2026-04-30 14:11 | 28.04537 | -16.57521 | 222 ft | 15 kts | 249° |
| 2026-04-30 14:11 | 28.04511 | -16.57592 | 222 ft | 14 kts | 248° |
| 2026-04-30 14:11 | 28.04476 | -16.57694 | 223 ft | 14 kts | 249° |
| 2026-04-30 14:11 | 28.04445 | -16.57783 | 222 ft | 8 kts | 248° |
| 2026-04-30 14:12 | 28.04471 | -16.57834 | 222 ft | 8 kts | 329° |
| 2026-04-30 14:12 | 28.04491 | -16.57843 | 222 ft | 1 kts | 339° |
| 2026-04-30 14:12 | 28.04494 | -16.57844 | 222 ft | 0 kts | 339° |